Silia — WDG2034 — position and weather

sailwx.info

Track history (hours):
 
Tides and Currents Weather Stations Pressure Air Temp Water Temp Dewpoint Dewpoint Depression Visibility Wind Speed Wind Dir Waves Ship Positions

Silia

More information available from US FCC via Universal Licensing System and Coast Guard Vessel Documentation Center.

Last reported at 2014-Aug-26 23:04 UTC. Time now 2014-Aug-27 15:15 UTC.
Position N 33°35' W 117°54'.

Length 17 m; draft 3 m.

Type: Tug. MMSI: 367511460.

Date/timePositionNaut miles runAvg speedWind from/ knotsBaromVisibWave heightAir tempDewpointWater temp
2014-Aug-26 23:04N 33°35' W 117°54'3 5.6
2014-Aug-26 22:30N 33°37' W 117°57'3 3.1
2014-Aug-26 21:33N 33°36' W 117°53'0 0.4
2014-Aug-26 20:33N 33°36' W 117°53'3 3.0
2014-Aug-26 19:33N 33°37' W 117°56'2 1.5
2014-Aug-26 18:32N 33°36' W 117°54'1 1.2
2014-Aug-26 17:29N 33°35' W 117°54'1 0.7
2014-Aug-26 16:19N 33°35' W 117°53'0 0.2
2014-Aug-26 15:03N 33°36' W 117°53'2 0.2
2014-Aug-26 02:32N 33°37' W 117°55'1 0.7
2014-Aug-26 01:33N 33°36' W 117°55'1 0.5
2014-Aug-25 22:29N 33°37' W 117°57'3 3.0
2014-Aug-25 21:28N 33°36' W 117°53'2 0.1
2014-Aug-25 04:31N 33°37' W 117°55'0 0.0
2014-Aug-25 02:30N 33°37' W 117°55'1 0.1
2014-Aug-24 18:04N 33°36' W 117°54'1 0.5
2014-Aug-24 16:10N 33°36' W 117°53'2 0.2
2014-Aug-24 03:14N 33°37' W 117°55'1 0.5
2014-Aug-24 01:32N 33°36' W 117°54'2 2.2
2014-Aug-24 00:33N 33°37' W 117°57'2 1.6
2014-Aug-23 23:13N 33°36' W 117°54'0 0.6
2014-Aug-23 22:33N 33°36' W 117°54'3 2.6
2014-Aug-23 21:32N 33°37' W 117°57'4 3.7
2014-Aug-23 20:33N 33°36' W 117°53'1 0.1
2014-Aug-23 01:33N 33°36' W 117°55'1 0.4
2014-Aug-22 23:11N 33°37' W 117°54'1 1.9
2014-Aug-22 22:33N 33°35' W 117°54'  
2014-Aug-17 18:30N 33°37' W 117°55'0 0.0
2014-Aug-17 06:33N 33°37' W 117°55'0 0.0
2014-Aug-17 02:30N 33°37' W 117°55'0 0.0
2014-Aug-17 01:24N 33°37' W 117°55'0 0.0
2014-Aug-17 00:32N 33°37' W 117°55'0 0.0
2014-Aug-16 23:33N 33°37' W 117°55'  
Track history (hours):
 
Tides and Currents Weather Stations Pressure Air Temp Water Temp Dewpoint Dewpoint Depression Visibility Wind Speed Wind Dir Waves Ship Positions

Silia

More information available from US FCC via Universal Licensing System and Coast Guard Vessel Documentation Center.

Last reported at 2014-Aug-26 23:04 UTC. Time now 2014-Aug-27 15:15 UTC.
Position N 33°35' W 117°54'.

Length 17 m; draft 3 m.

Type: Tug. MMSI: 367511460.

Date/timePositionNaut miles runAvg speedWind from/ knotsBaromVisibWave heightAir tempDewpointWater temp
2014-Aug-26 23:04N 33°35' W 117°54'3 5.6
2014-Aug-26 22:30N 33°37' W 117°57'3 3.1
2014-Aug-26 21:33N 33°36' W 117°53'0 0.4
2014-Aug-26 20:33N 33°36' W 117°53'3 3.0
2014-Aug-26 19:33N 33°37' W 117°56'2 1.5
2014-Aug-26 18:32N 33°36' W 117°54'1 1.2
2014-Aug-26 17:29N 33°35' W 117°54'1 0.7
2014-Aug-26 16:19N 33°35' W 117°53'0 0.2
2014-Aug-26 15:03N 33°36' W 117°53'2 0.2
2014-Aug-26 02:32N 33°37' W 117°55'1 0.7
2014-Aug-26 01:33N 33°36' W 117°55'1 0.5
2014-Aug-25 22:29N 33°37' W 117°57'3 3.0
2014-Aug-25 21:28N 33°36' W 117°53'2 0.1
2014-Aug-25 04:31N 33°37' W 117°55'0 0.0
2014-Aug-25 02:30N 33°37' W 117°55'1 0.1
2014-Aug-24 18:04N 33°36' W 117°54'1 0.5
2014-Aug-24 16:10N 33°36' W 117°53'2 0.2
2014-Aug-24 03:14N 33°37' W 117°55'1 0.5
2014-Aug-24 01:32N 33°36' W 117°54'2 2.2
2014-Aug-24 00:33N 33°37' W 117°57'2 1.6
2014-Aug-23 23:13N 33°36' W 117°54'0 0.6
2014-Aug-23 22:33N 33°36' W 117°54'3 2.6
2014-Aug-23 21:32N 33°37' W 117°57'4 3.7
2014-Aug-23 20:33N 33°36' W 117°53'1 0.1
2014-Aug-23 01:33N 33°36' W 117°55'1 0.4
2014-Aug-22 23:11N 33°37' W 117°54'1 1.9
2014-Aug-22 22:33N 33°35' W 117°54'  
2014-Aug-17 18:30N 33°37' W 117°55'0 0.0
2014-Aug-17 06:33N 33°37' W 117°55'0 0.0
2014-Aug-17 02:30N 33°37' W 117°55'0 0.0
2014-Aug-17 01:24N 33°37' W 117°55'0 0.0
2014-Aug-17 00:32N 33°37' W 117°55'0 0.0
2014-Aug-16 23:33N 33°37' W 117°55'  

Dump ship's entire track history